createdAt,value
2018-06-08T00:00:07.142Z,20.40
2018-06-08T00:01:07.085Z,20.90
2018-06-08T00:02:07.112Z,20.90
2018-06-08T00:03:07.081Z,20.60
2018-06-08T00:04:06.709Z,21.20
2018-06-08T00:05:07.091Z,22.50
2018-06-08T00:06:07.072Z,21.40
2018-06-08T00:07:07.114Z,22.10
2018-06-08T00:08:07.071Z,22.40
2018-06-08T00:09:07.086Z,23.00
2018-06-08T00:10:07.086Z,21.70
2018-06-08T00:11:07.096Z,21.80
2018-06-08T00:12:07.067Z,22.10
2018-06-08T00:13:07.147Z,22.60
2018-06-08T00:14:07.102Z,22.20
2018-06-08T00:15:07.124Z,22.80
2018-06-08T00:16:07.105Z,22.30
2018-06-08T00:17:07.108Z,22.00
2018-06-08T00:18:07.106Z,22.20
2018-06-08T00:19:07.122Z,22.50
2018-06-08T00:20:07.207Z,21.30
2018-06-08T00:21:07.125Z,20.00
2018-06-08T00:22:07.224Z,20.80
2018-06-08T00:23:08.977Z,20.50
2018-06-08T00:24:07.203Z,19.00
2018-06-08T00:25:06.812Z,18.70
2018-06-08T00:26:07.210Z,19.80
2018-06-08T00:27:07.238Z,18.10
2018-06-08T00:28:07.196Z,18.40
2018-06-08T00:29:07.187Z,18.40
2018-06-08T00:30:07.172Z,18.10
2018-06-08T00:31:07.270Z,18.50
2018-06-08T00:32:07.290Z,17.20
2018-06-08T00:33:07.139Z,18.60
2018-06-08T00:34:07.141Z,17.20
2018-06-08T00:35:07.138Z,19.00
2018-06-08T00:36:07.144Z,17.20
2018-06-08T00:37:07.800Z,17.40
2018-06-08T00:38:07.130Z,17.00
2018-06-08T00:39:07.166Z,17.90
2018-06-08T00:40:07.095Z,18.60
2018-06-08T00:41:06.820Z,18.20
2018-06-08T00:42:07.148Z,18.00
2018-06-08T00:43:07.167Z,17.50
2018-06-08T00:44:07.131Z,17.30
2018-06-08T00:45:07.205Z,17.80
2018-06-08T00:46:07.161Z,16.90
2018-06-08T00:47:07.196Z,17.60
2018-06-08T00:48:07.290Z,17.40
2018-06-08T00:49:07.259Z,19.30
2018-06-08T00:50:07.245Z,17.60
2018-06-08T00:51:09.071Z,17.90
2018-06-08T00:52:09.086Z,18.90
2018-06-08T00:53:07.322Z,18.00
2018-06-08T00:54:07.241Z,18.40
2018-06-08T00:55:07.398Z,18.60
2018-06-08T00:56:07.298Z,18.40
2018-06-08T00:57:07.257Z,20.00
2018-06-08T00:59:07.300Z,21.10
2018-06-08T01:00:07.193Z,20.50
2018-06-08T01:01:07.166Z,21.90
2018-06-08T01:02:07.164Z,21.70
2018-06-08T01:03:07.159Z,21.20
2018-06-08T01:04:07.228Z,22.10
2018-06-08T01:05:07.237Z,23.20
2018-06-08T01:06:07.230Z,22.70
2018-06-08T01:07:07.219Z,23.50
2018-06-08T01:08:07.221Z,22.90
2018-06-08T01:09:07.185Z,23.10
2018-06-08T01:10:07.209Z,23.50
2018-06-08T01:11:07.187Z,24.30
2018-06-08T01:12:07.224Z,23.90
2018-06-08T01:13:07.237Z,24.50
2018-06-08T01:14:07.274Z,23.70
2018-06-08T01:15:07.404Z,26.10
2018-06-08T01:16:07.259Z,23.70
2018-06-08T01:17:06.914Z,23.50
2018-06-08T01:18:07.416Z,24.40
2018-06-08T01:19:07.453Z,23.60
2018-06-08T01:20:07.461Z,24.20
2018-06-08T01:21:07.820Z,26.20
2018-06-08T01:22:07.383Z,25.50
2018-06-08T01:23:07.440Z,24.80
2018-06-08T01:24:07.426Z,24.50
2018-06-08T01:25:09.210Z,24.60
2018-06-08T01:26:07.429Z,24.30
2018-06-08T01:27:07.402Z,26.10
2018-06-08T01:28:07.317Z,25.50
2018-06-08T01:29:09.103Z,25.30
2018-06-08T01:30:07.338Z,26.20
2018-06-08T01:31:07.344Z,25.40
2018-06-08T01:32:07.320Z,25.50
2018-06-08T01:33:07.324Z,26.00
2018-06-08T01:34:07.304Z,25.60
2018-06-08T01:35:07.266Z,25.70
2018-06-08T01:36:07.409Z,25.50
2018-06-08T01:37:07.362Z,26.20
2018-06-08T01:38:07.369Z,26.70
2018-06-08T01:39:07.323Z,26.90
2018-06-08T01:40:07.678Z,27.00
2018-06-08T01:41:07.424Z,26.20
2018-06-08T01:42:07.413Z,27.30
2018-06-08T01:43:07.454Z,29.20
2018-06-08T01:44:07.417Z,30.40
2018-06-08T01:45:07.390Z,28.00
2018-06-08T01:46:07.381Z,29.20
2018-06-08T01:47:07.457Z,30.00
2018-06-08T01:48:07.482Z,28.80
2018-06-08T01:49:07.370Z,29.90
2018-06-08T01:50:07.530Z,31.40
2018-06-08T01:51:07.685Z,31.00
2018-06-08T01:52:07.696Z,30.40
2018-06-08T01:53:07.722Z,31.50
2018-06-08T01:54:09.472Z,31.20
2018-06-08T01:55:07.615Z,32.00
2018-06-08T01:56:07.583Z,31.10
2018-06-08T01:57:07.601Z,31.30
2018-06-08T01:58:07.625Z,31.00
2018-06-08T01:59:07.652Z,32.30
2018-06-08T02:00:07.708Z,31.30
2018-06-08T02:01:07.634Z,32.50
2018-06-08T02:02:07.655Z,33.70
2018-06-08T02:03:07.651Z,33.70
2018-06-08T02:04:09.472Z,33.90
2018-06-08T02:05:07.625Z,33.70
2018-06-08T02:06:07.652Z,33.30
2018-06-08T02:07:07.649Z,33.60
2018-06-08T02:08:07.680Z,34.00
2018-06-08T02:09:07.666Z,34.50
2018-06-08T02:10:07.677Z,33.60
2018-06-08T02:11:07.670Z,36.10
2018-06-08T02:12:07.629Z,34.60
2018-06-08T02:13:07.678Z,34.40
2018-06-08T02:14:07.692Z,34.00
2018-06-08T02:15:07.693Z,33.70
2018-06-08T02:17:07.691Z,34.30
2018-06-08T02:18:07.676Z,33.70
2018-06-08T02:19:07.668Z,35.30
2018-06-08T02:20:07.630Z,34.30
2018-06-08T02:21:07.660Z,34.80
2018-06-08T02:22:09.483Z,34.60
2018-06-08T02:23:07.547Z,35.10
2018-06-08T02:24:07.592Z,34.80
2018-06-08T02:25:07.677Z,35.10
2018-06-08T02:26:07.626Z,35.60
2018-06-08T02:27:07.660Z,36.40
2018-06-08T02:28:07.642Z,37.50
2018-06-08T02:29:07.631Z,35.90
2018-06-08T02:30:07.654Z,37.30
2018-06-08T02:31:07.620Z,37.10
2018-06-08T02:32:07.629Z,36.10
2018-06-08T02:33:07.640Z,36.80
2018-06-08T02:34:07.665Z,37.60
2018-06-08T02:35:07.700Z,36.60
2018-06-08T02:36:07.674Z,37.10
2018-06-08T02:37:07.675Z,36.00
2018-06-08T02:38:07.673Z,37.60
2018-06-08T02:39:07.692Z,37.50
2018-06-08T02:40:07.629Z,37.60
2018-06-08T02:41:07.685Z,36.90
2018-06-08T02:42:07.634Z,36.10
2018-06-08T02:43:07.660Z,36.90
2018-06-08T02:44:07.688Z,36.90
2018-06-08T02:45:07.717Z,36.80
2018-06-08T02:46:07.170Z,36.20
2018-06-08T02:47:07.655Z,37.60
2018-06-08T02:48:09.883Z,38.80
2018-06-08T02:49:07.665Z,36.90
2018-06-08T02:50:07.636Z,37.30
2018-06-08T02:51:07.635Z,38.10
2018-06-08T02:52:09.911Z,38.00
2018-06-08T02:53:07.654Z,37.60
2018-06-08T02:54:07.649Z,38.80
2018-06-08T02:55:07.651Z,40.00
2018-06-08T02:56:07.616Z,38.00
2018-06-08T02:57:13.651Z,38.30
2018-06-08T02:58:13.848Z,41.10
2018-06-08T02:59:07.663Z,38.20
2018-06-08T03:00:07.117Z,38.60
2018-06-08T03:01:07.692Z,37.40
2018-06-08T03:02:07.674Z,38.50
2018-06-08T03:03:07.659Z,39.20
2018-06-08T03:04:07.663Z,39.80
2018-06-08T03:05:07.708Z,38.50
2018-06-08T03:06:07.692Z,40.00
2018-06-08T03:07:09.528Z,41.30
2018-06-08T03:08:07.709Z,39.30
2018-06-08T03:09:07.702Z,40.90
2018-06-08T03:10:07.709Z,40.20
2018-06-08T03:11:07.696Z,41.20
2018-06-08T03:12:07.730Z,40.20
2018-06-08T03:13:07.715Z,39.70
2018-06-08T03:14:07.631Z,40.90
2018-06-08T03:15:07.688Z,41.30
2018-06-08T03:16:07.679Z,40.80
2018-06-08T03:17:07.674Z,40.50
2018-06-08T03:18:07.695Z,40.80
2018-06-08T03:19:07.766Z,41.50
2018-06-08T03:20:07.697Z,41.50
2018-06-08T03:21:07.685Z,40.40
2018-06-08T03:22:07.637Z,39.60
2018-06-08T03:23:07.201Z,41.00
2018-06-08T03:24:07.691Z,39.90
2018-06-08T03:25:07.699Z,40.80
2018-06-08T03:26:07.717Z,39.40
2018-06-08T03:27:07.693Z,38.70
2018-06-08T03:28:07.726Z,40.60
2018-06-08T03:29:07.691Z,40.50
2018-06-08T03:30:07.709Z,41.30
2018-06-08T03:31:07.677Z,41.00
2018-06-08T03:32:09.860Z,40.00
2018-06-08T03:33:07.710Z,42.20
2018-06-08T03:34:07.201Z,42.00
2018-06-08T03:35:07.735Z,41.70
2018-06-08T03:36:07.690Z,42.40
2018-06-08T03:37:07.720Z,41.90
2018-06-08T03:38:07.775Z,43.00
2018-06-08T03:39:07.712Z,40.20
2018-06-08T03:40:07.706Z,42.60
2018-06-08T03:41:07.243Z,42.90
2018-06-08T03:42:07.688Z,42.10
2018-06-08T03:43:07.683Z,44.40
2018-06-08T03:44:07.691Z,43.50
2018-06-08T03:45:07.685Z,43.20
2018-06-08T03:46:07.687Z,44.20
2018-06-08T03:47:07.681Z,41.70
2018-06-08T03:48:07.387Z,42.70
2018-06-08T03:49:07.658Z,42.00
2018-06-08T03:50:08.224Z,41.20
2018-06-08T03:51:07.702Z,41.00
2018-06-08T03:52:07.701Z,41.50
2018-06-08T03:53:09.720Z,41.00
2018-06-08T03:54:07.711Z,40.60
2018-06-08T03:55:07.924Z,40.80
2018-06-08T03:56:07.673Z,40.50
2018-06-08T03:57:07.902Z,41.40
2018-06-08T03:58:07.700Z,42.30
2018-06-08T03:59:07.270Z,43.50
2018-06-08T04:00:07.907Z,43.10
2018-06-08T04:01:07.906Z,45.40
2018-06-08T04:02:08.018Z,42.00
2018-06-08T04:03:07.907Z,42.90
2018-06-08T04:04:07.891Z,41.60
2018-06-08T04:05:07.895Z,42.90
2018-06-08T04:06:07.890Z,44.00
2018-06-08T04:07:07.912Z,42.30
2018-06-08T04:08:07.986Z,44.50
2018-06-08T04:09:07.388Z,45.50
2018-06-08T04:10:07.751Z,45.90
2018-06-08T04:11:07.686Z,46.00
2018-06-08T04:12:07.703Z,41.90
2018-06-08T04:13:07.932Z,44.30
2018-06-08T04:14:07.717Z,42.10
2018-06-08T04:15:07.699Z,44.30
2018-06-08T04:16:07.730Z,42.30
2018-06-08T04:17:07.782Z,42.80
2018-06-08T04:18:07.768Z,42.60
2018-06-08T04:19:07.675Z,42.10
2018-06-08T04:20:07.722Z,42.10
2018-06-08T04:21:07.755Z,41.30
2018-06-08T04:22:08.228Z,42.50
2018-06-08T04:23:07.993Z,42.00
2018-06-08T04:24:07.332Z,43.80
2018-06-08T04:25:07.758Z,42.50
2018-06-08T04:26:07.754Z,44.20
2018-06-08T04:27:07.362Z,43.10
2018-06-08T04:28:07.773Z,41.70
2018-06-08T04:29:07.769Z,42.00
2018-06-08T04:30:07.739Z,41.90
2018-06-08T04:31:07.759Z,41.90
2018-06-08T04:32:07.813Z,42.60
2018-06-08T04:33:07.782Z,42.00
2018-06-08T04:34:07.866Z,42.10
2018-06-08T04:35:07.837Z,44.50
2018-06-08T04:36:07.795Z,41.90
2018-06-08T04:37:07.732Z,41.40
2018-06-08T04:38:07.700Z,41.80
2018-06-08T04:39:07.640Z,41.00
2018-06-08T04:40:07.796Z,41.20
2018-06-08T04:41:07.715Z,40.80
2018-06-08T04:42:08.257Z,39.90
2018-06-08T04:43:08.243Z,39.80
2018-06-08T04:44:07.901Z,44.00
2018-06-08T04:45:07.922Z,42.60
2018-06-08T04:46:07.905Z,41.40
2018-06-08T04:47:07.923Z,42.50
2018-06-08T04:48:08.245Z,40.20
2018-06-08T04:49:07.383Z,41.90
2018-06-08T04:50:07.745Z,41.70
2018-06-08T04:51:07.724Z,42.60
2018-06-08T04:52:07.746Z,42.60
2018-06-08T04:53:07.809Z,43.00
2018-06-08T04:54:07.735Z,41.10
2018-06-08T04:55:07.760Z,40.50
2018-06-08T04:56:07.766Z,40.10
2018-06-08T04:57:07.734Z,40.20
2018-06-08T04:58:07.747Z,41.50
2018-06-08T04:59:07.745Z,40.80
2018-06-08T05:00:09.617Z,40.70
2018-06-08T05:01:07.506Z,42.20
2018-06-08T05:02:07.761Z,41.80
2018-06-08T05:03:07.860Z,40.90
2018-06-08T05:04:08.432Z,41.40
2018-06-08T05:05:07.416Z,41.20
2018-06-08T05:06:07.778Z,40.70
2018-06-08T05:07:07.912Z,40.70
2018-06-08T05:08:08.020Z,43.30
2018-06-08T05:09:08.248Z,42.40
2018-06-08T05:10:07.931Z,41.30
2018-06-08T05:11:07.788Z,44.20
2018-06-08T05:12:08.268Z,41.90
2018-06-08T05:13:07.805Z,42.90
2018-06-08T05:14:07.792Z,43.10
2018-06-08T05:15:08.033Z,41.70
2018-06-08T05:16:08.255Z,40.40
2018-06-08T05:17:07.966Z,42.60
2018-06-08T05:18:08.253Z,43.30
2018-06-08T05:19:07.966Z,44.10
2018-06-08T05:20:07.886Z,44.80
2018-06-08T05:21:08.168Z,44.70
2018-06-08T05:22:08.271Z,43.10
2018-06-08T05:23:09.770Z,43.50
2018-06-08T05:24:07.920Z,45.40
2018-06-08T05:25:07.973Z,45.30
2018-06-08T05:26:07.970Z,45.20
2018-06-08T05:27:07.942Z,43.50
2018-06-08T05:28:08.271Z,45.50
2018-06-08T05:29:07.975Z,44.00
2018-06-08T05:30:08.299Z,45.30
2018-06-08T05:31:08.408Z,44.90
2018-06-08T05:32:07.974Z,45.40
2018-06-08T05:33:07.949Z,46.00
2018-06-08T05:34:14.472Z,43.90
2018-06-08T05:35:14.284Z,45.40
2018-06-08T05:36:07.547Z,44.60
2018-06-08T05:37:08.061Z,43.70
2018-06-08T05:38:08.468Z,43.10
2018-06-08T05:39:07.763Z,43.70
2018-06-08T05:40:07.895Z,43.40
2018-06-08T05:41:08.368Z,44.30
2018-06-08T05:42:08.000Z,47.00
2018-06-08T05:43:07.929Z,42.90
2018-06-08T05:44:07.938Z,41.70
2018-06-08T05:45:07.923Z,41.80
2018-06-08T05:46:08.283Z,41.80
2018-06-08T05:47:09.994Z,41.20
2018-06-08T05:48:07.971Z,40.50
2018-06-08T05:49:08.232Z,43.20
2018-06-08T05:50:08.285Z,44.10
2018-06-08T05:51:07.959Z,43.30
2018-06-08T05:52:07.929Z,41.40
2018-06-08T05:53:07.874Z,42.10
2018-06-08T05:54:07.938Z,40.80
2018-06-08T05:55:08.452Z,41.70
2018-06-08T05:56:08.212Z,42.20
2018-06-08T05:57:07.979Z,41.20
2018-06-08T05:58:08.042Z,40.30
2018-06-08T05:59:08.521Z,41.60
2018-06-08T06:00:08.261Z,42.50
2018-06-08T06:01:07.977Z,41.60
2018-06-08T06:02:07.974Z,42.70
2018-06-08T06:03:08.446Z,42.50
2018-06-08T06:04:07.935Z,41.80
2018-06-08T06:05:07.982Z,42.30
2018-06-08T06:06:10.033Z,43.20
2018-06-08T06:07:07.941Z,43.20
2018-06-08T06:08:07.969Z,43.70
2018-06-08T06:09:08.352Z,43.30
2018-06-08T06:10:07.570Z,44.20
2018-06-08T06:11:08.479Z,44.50
2018-06-08T06:12:10.107Z,43.50
2018-06-08T06:13:08.237Z,41.80
2018-06-08T06:14:07.958Z,41.90
2018-06-08T06:15:08.582Z,41.40
2018-06-08T06:16:07.783Z,41.20
2018-06-08T06:17:08.172Z,42.30
2018-06-08T06:18:08.464Z,41.90
2018-06-08T06:19:08.357Z,42.70
2018-06-08T06:20:07.904Z,41.20
2018-06-08T06:21:08.048Z,40.90
2018-06-08T06:22:08.337Z,40.50
2018-06-08T06:23:08.096Z,39.30
2018-06-08T06:24:08.442Z,40.20
2018-06-08T06:25:09.986Z,39.00
2018-06-08T06:26:07.994Z,39.90
2018-06-08T06:27:08.237Z,40.60
2018-06-08T06:28:08.260Z,38.60
2018-06-08T06:29:08.521Z,39.60
2018-06-08T06:30:08.266Z,38.30
2018-06-08T06:31:08.292Z,39.80
2018-06-08T06:32:08.790Z,39.50
2018-06-08T06:33:07.951Z,41.00
2018-06-08T06:34:08.487Z,41.90
2018-06-08T06:35:08.447Z,40.80
2018-06-08T06:36:08.528Z,40.10
2018-06-08T06:37:08.046Z,39.40
2018-06-08T06:38:08.468Z,39.90
2018-06-08T06:39:08.014Z,39.60
2018-06-08T06:40:08.982Z,41.00
2018-06-08T06:41:08.454Z,40.30
2018-06-08T06:42:08.465Z,40.60
2018-06-08T06:43:10.099Z,39.20
2018-06-08T06:44:08.801Z,40.40
2018-06-08T06:45:08.906Z,38.40
2018-06-08T06:46:08.861Z,39.30
2018-06-08T06:47:08.450Z,40.00
2018-06-08T06:48:08.818Z,41.50
2018-06-08T06:49:08.478Z,42.00
2018-06-08T06:50:08.528Z,41.30
2018-06-08T06:51:08.005Z,40.50
2018-06-08T06:52:08.032Z,41.40
2018-06-08T06:53:08.849Z,40.20
2018-06-08T06:54:08.813Z,38.40
2018-06-08T06:55:08.560Z,41.00
2018-06-08T06:56:08.625Z,38.40
2018-06-08T06:57:08.312Z,39.10
2018-06-08T06:58:08.358Z,39.10
2018-06-08T06:59:08.779Z,39.10
2018-06-08T07:00:08.977Z,39.70
2018-06-08T07:01:08.810Z,40.60
2018-06-08T07:02:08.818Z,38.30
2018-06-08T07:03:08.572Z,38.70
2018-06-08T07:04:08.564Z,39.80
2018-06-08T07:05:08.504Z,40.20
2018-06-08T07:06:08.510Z,39.70
2018-06-08T07:07:08.549Z,40.60
2018-06-08T07:08:08.468Z,41.80
2018-06-08T07:09:08.489Z,41.20
2018-06-08T07:10:08.557Z,41.00
2018-06-08T07:11:08.542Z,40.00
2018-06-08T07:12:10.541Z,42.90
2018-06-08T07:13:08.800Z,41.00
2018-06-08T07:14:08.523Z,41.20
2018-06-08T07:15:09.011Z,39.40
2018-06-08T07:16:08.805Z,38.60
2018-06-08T07:17:08.063Z,39.60
2018-06-08T07:18:08.603Z,39.90
2018-06-08T07:19:08.046Z,40.30
2018-06-08T07:20:08.007Z,39.40
2018-06-08T07:21:08.532Z,40.60
2018-06-08T07:22:08.801Z,39.40
2018-06-08T07:23:07.801Z,38.30
2018-06-08T07:24:08.536Z,39.00
2018-06-08T07:25:08.895Z,39.30
2018-06-08T07:26:08.517Z,38.90
2018-06-08T07:27:08.470Z,39.20
2018-06-08T07:28:08.569Z,39.10
2018-06-08T07:29:08.557Z,38.90
2018-06-08T07:30:08.072Z,40.90
2018-06-08T07:31:08.306Z,38.90
2018-06-08T07:32:08.265Z,39.30
2018-06-08T07:33:08.565Z,41.50
2018-06-08T07:34:08.333Z,40.80
2018-06-08T07:35:08.449Z,42.00
2018-06-08T07:36:07.972Z,40.40
2018-06-08T07:37:08.493Z,39.70
2018-06-08T07:38:08.956Z,39.20
2018-06-08T07:39:13.554Z,41.90
2018-06-08T07:40:08.328Z,39.00
2018-06-08T07:41:08.981Z,41.90
2018-06-08T07:42:08.833Z,40.50
2018-06-08T07:43:08.472Z,41.00
2018-06-08T07:44:07.821Z,39.40
2018-06-08T07:45:10.110Z,39.60
2018-06-08T07:46:08.473Z,39.70
2018-06-08T07:47:08.472Z,38.80
2018-06-08T07:48:08.474Z,38.50
2018-06-08T07:49:08.481Z,39.40
2018-06-08T07:50:08.929Z,38.70
2018-06-08T07:51:08.522Z,39.90
2018-06-08T07:52:07.965Z,38.80
2018-06-08T07:53:08.879Z,39.90
2018-06-08T07:54:08.825Z,39.90
2018-06-08T07:55:08.418Z,40.00
2018-06-08T07:56:08.506Z,39.70
2018-06-08T07:57:08.463Z,40.50
2018-06-08T07:58:08.826Z,39.20
2018-06-08T07:59:08.999Z,39.70
2018-06-08T08:00:08.233Z,39.50
2018-06-08T08:01:08.540Z,38.70
2018-06-08T08:02:08.860Z,39.20
2018-06-08T08:03:08.859Z,40.20
2018-06-08T08:04:07.896Z,38.40
2018-06-08T08:05:08.593Z,39.90
2018-06-08T08:06:08.401Z,39.60
2018-06-08T08:07:08.574Z,39.70
2018-06-08T08:08:07.871Z,38.20
2018-06-08T08:09:08.843Z,38.60
2018-06-08T08:10:08.508Z,39.40
2018-06-08T08:11:07.989Z,39.40
2018-06-08T08:12:09.000Z,38.00
2018-06-08T08:13:08.542Z,38.10
2018-06-08T08:14:08.991Z,39.40
2018-06-08T08:15:08.371Z,40.90
2018-06-08T08:16:08.901Z,42.00
2018-06-08T08:17:08.866Z,41.50
2018-06-08T08:18:09.018Z,42.50
2018-06-08T08:19:08.491Z,40.20
2018-06-08T08:20:08.587Z,38.60
2018-06-08T08:21:08.391Z,37.90
2018-06-08T08:22:08.819Z,39.40
2018-06-08T08:23:08.458Z,41.00
2018-06-08T08:24:08.556Z,39.80
2018-06-08T08:25:08.704Z,41.00
2018-06-08T08:26:09.057Z,40.80
2018-06-08T08:27:08.130Z,38.50
2018-06-08T08:28:08.364Z,41.10
2018-06-08T08:29:08.992Z,41.10
2018-06-08T08:30:08.529Z,40.20
2018-06-08T08:31:08.975Z,42.60
2018-06-08T08:32:08.566Z,41.20
2018-06-08T08:33:08.753Z,42.60
2018-06-08T08:34:08.596Z,42.00
2018-06-08T08:35:08.842Z,40.30
2018-06-08T08:36:07.983Z,43.20
2018-06-08T08:37:08.553Z,43.60
2018-06-08T08:38:08.832Z,42.50
2018-06-08T08:39:08.110Z,42.50
2018-06-08T08:40:09.501Z,41.40
2018-06-08T08:41:10.738Z,41.20
2018-06-08T08:42:08.085Z,40.70
2018-06-08T08:43:10.858Z,42.10
2018-06-08T08:44:08.861Z,43.20
2018-06-08T08:45:08.546Z,42.50
2018-06-08T08:46:09.055Z,42.20
2018-06-08T08:47:08.065Z,43.10
2018-06-08T08:48:08.501Z,42.10
2018-06-08T08:49:08.457Z,41.90
2018-06-08T08:50:08.921Z,41.90
2018-06-08T08:51:08.851Z,43.10
2018-06-08T08:52:08.582Z,44.10
2018-06-08T08:53:08.162Z,42.60
2018-06-08T08:54:09.166Z,43.80
2018-06-08T08:55:08.554Z,43.90
2018-06-08T08:56:08.710Z,44.80
2018-06-08T08:57:08.594Z,46.20
2018-06-08T08:58:08.510Z,48.30
2018-06-08T08:59:10.169Z,47.00
2018-06-08T09:00:08.755Z,46.60
2018-06-08T09:01:08.482Z,45.50
2018-06-08T09:02:09.111Z,46.80
2018-06-08T09:03:08.590Z,44.70
2018-06-08T09:04:08.808Z,44.00
2018-06-08T09:05:08.579Z,42.50
2018-06-08T09:06:08.169Z,45.60
2018-06-08T09:07:09.055Z,45.60
2018-06-08T09:08:08.568Z,48.00
2018-06-08T09:09:08.573Z,46.80
2018-06-08T09:10:10.516Z,47.10
2018-06-08T09:11:14.609Z,48.30
2018-06-08T09:12:14.895Z,47.40
2018-06-08T09:13:10.858Z,48.60
2018-06-08T09:14:08.946Z,47.90
2018-06-08T09:15:08.756Z,47.40
2018-06-08T09:16:09.093Z,47.30
2018-06-08T09:17:08.447Z,48.50
2018-06-08T09:18:08.886Z,51.20
2018-06-08T09:19:08.883Z,51.10
2018-06-08T09:20:08.467Z,51.40
2018-06-08T09:21:09.085Z,50.80
2018-06-08T09:22:08.523Z,51.50
2018-06-08T09:23:08.582Z,52.30
2018-06-08T09:24:08.524Z,52.00
2018-06-08T09:25:08.875Z,53.80
2018-06-08T09:26:09.102Z,49.90
2018-06-08T09:27:09.074Z,52.20
2018-06-08T09:28:09.022Z,51.40
2018-06-08T09:29:09.100Z,51.80
2018-06-08T09:30:09.073Z,51.50
2018-06-08T09:31:08.563Z,50.30
2018-06-08T09:32:08.594Z,48.80
2018-06-08T09:33:08.913Z,52.00
2018-06-08T09:34:09.219Z,51.90
2018-06-08T09:35:09.030Z,49.60
2018-06-08T09:36:09.063Z,48.40
2018-06-08T09:37:09.097Z,49.90
2018-06-08T09:38:08.589Z,48.20
2018-06-08T09:39:08.789Z,47.30
2018-06-08T09:40:08.574Z,48.80
2018-06-08T09:41:09.030Z,47.20
2018-06-08T09:42:08.832Z,47.60
2018-06-08T09:43:09.080Z,48.80
2018-06-08T09:44:09.375Z,48.20
2018-06-08T09:45:08.830Z,48.80
2018-06-08T09:46:08.908Z,50.70
2018-06-08T09:47:09.387Z,52.20
2018-06-08T09:48:08.639Z,51.60
2018-06-08T09:49:08.890Z,52.00
2018-06-08T09:50:09.371Z,52.30
2018-06-08T09:51:08.586Z,51.90
2018-06-08T09:52:09.413Z,53.30
2018-06-08T09:53:08.855Z,52.30
2018-06-08T09:54:08.899Z,52.60
2018-06-08T09:55:09.561Z,52.10
2018-06-08T09:56:09.005Z,53.80
2018-06-08T09:57:08.833Z,52.00
2018-06-08T09:58:09.035Z,51.60
2018-06-08T09:59:09.419Z,52.90
2018-06-08T10:00:09.362Z,52.20
2018-06-08T10:01:09.112Z,52.10
2018-06-08T10:02:09.152Z,52.90
2018-06-08T10:03:09.042Z,52.20
2018-06-08T10:04:09.461Z,53.60
2018-06-08T10:05:09.120Z,54.30
2018-06-08T10:06:08.638Z,52.70
2018-06-08T10:07:09.083Z,51.80
2018-06-08T10:08:09.046Z,52.60
2018-06-08T10:09:09.116Z,52.40
2018-06-08T10:10:09.039Z,54.20
2018-06-08T10:11:09.441Z,54.00
2018-06-08T10:12:08.404Z,52.10
2018-06-08T10:13:09.381Z,52.60
2018-06-08T10:14:09.139Z,54.10
2018-06-08T10:15:09.291Z,53.30
2018-06-08T10:16:08.541Z,54.10
2018-06-08T10:17:08.792Z,55.20
2018-06-08T10:18:09.114Z,53.30
2018-06-08T10:20:09.131Z,54.10
2018-06-08T10:21:09.563Z,52.70
2018-06-08T10:22:08.589Z,53.30
2018-06-08T10:23:09.482Z,53.50
2018-06-08T10:24:09.089Z,53.60
2018-06-08T10:25:09.119Z,54.00
2018-06-08T10:26:08.460Z,50.70
2018-06-08T10:27:09.380Z,53.50
2018-06-08T10:28:08.608Z,51.90
2018-06-08T10:29:08.952Z,54.60
2018-06-08T10:30:09.394Z,54.50
2018-06-08T10:31:09.392Z,53.10
2018-06-08T10:32:09.592Z,54.80
2018-06-08T10:33:09.405Z,52.70
2018-06-08T10:34:08.895Z,53.60
2018-06-08T10:35:08.827Z,52.40
2018-06-08T10:36:09.143Z,53.30
2018-06-08T10:37:09.005Z,52.80
2018-06-08T10:38:09.140Z,51.60
2018-06-08T10:39:09.393Z,53.30
2018-06-08T10:40:09.177Z,52.70
2018-06-08T10:41:09.052Z,53.40
2018-06-08T10:42:09.574Z,54.20
2018-06-08T10:43:08.472Z,54.70
2018-06-08T10:44:09.419Z,54.40
2018-06-08T10:45:09.425Z,53.30
2018-06-08T10:46:08.801Z,52.90
2018-06-08T10:47:09.137Z,53.60
2018-06-08T10:48:09.393Z,54.90
2018-06-08T10:49:09.058Z,54.30
2018-06-08T10:50:11.060Z,53.40
2018-06-08T10:51:09.131Z,54.40
2018-06-08T10:52:09.764Z,53.20
2018-06-08T10:53:08.836Z,55.80
2018-06-08T10:54:09.035Z,57.60
2018-06-08T10:55:09.493Z,56.20
2018-06-08T10:56:08.973Z,57.10
2018-06-08T10:57:09.428Z,56.60
2018-06-08T10:58:08.565Z,54.90
2018-06-08T10:59:09.064Z,55.90
2018-06-08T11:00:09.168Z,57.70
2018-06-08T11:01:08.607Z,58.50
2018-06-08T11:02:09.409Z,57.20
2018-06-08T11:03:09.707Z,57.80
2018-06-08T11:04:09.515Z,59.30
2018-06-08T11:05:08.874Z,59.00
2018-06-08T11:06:09.067Z,58.60
2018-06-08T11:07:09.065Z,60.50
2018-06-08T11:08:09.566Z,55.50
2018-06-08T11:09:09.168Z,57.30
2018-06-08T11:10:09.005Z,56.20
2018-06-08T11:11:09.100Z,54.50
2018-06-08T11:12:08.960Z,58.10
2018-06-08T11:13:08.891Z,57.30
2018-06-08T11:14:09.143Z,58.70
2018-06-08T11:15:09.437Z,58.40
2018-06-08T11:16:09.851Z,58.10
2018-06-08T11:17:09.090Z,61.10
2018-06-08T11:18:09.403Z,60.10
2018-06-08T11:19:09.066Z,61.20
2018-06-08T11:20:09.573Z,61.90
2018-06-08T11:21:08.916Z,61.40
2018-06-08T11:22:09.503Z,61.80
2018-06-08T11:23:08.864Z,61.20
2018-06-08T11:24:08.900Z,63.20
2018-06-08T11:25:09.112Z,62.50
2018-06-08T11:26:10.816Z,62.40
2018-06-08T11:27:08.990Z,61.40
2018-06-08T11:28:09.419Z,65.90
2018-06-08T11:29:09.137Z,67.30
2018-06-08T11:30:09.458Z,66.10
2018-06-08T11:31:09.218Z,68.70
2018-06-08T11:32:09.368Z,67.90
2018-06-08T11:33:08.880Z,71.30
2018-06-08T11:34:12.652Z,68.40
2018-06-08T11:35:08.958Z,71.80
2018-06-08T11:36:09.731Z,73.70
2018-06-08T11:37:10.934Z,72.70
2018-06-08T11:38:10.097Z,72.80
2018-06-08T11:39:10.979Z,72.40
2018-06-08T11:40:09.479Z,74.60
2018-06-08T11:41:09.541Z,72.70
2018-06-08T11:42:09.356Z,70.00
2018-06-08T11:43:09.217Z,70.00
2018-06-08T11:44:09.661Z,67.30
2018-06-08T11:45:08.948Z,65.30
2018-06-08T11:46:28.546Z,65.20
2018-06-08T11:47:08.956Z,67.00
2018-06-08T11:48:07.524Z,68.00
2018-06-08T11:49:08.899Z,67.60
2018-06-08T11:50:08.552Z,69.30
2018-06-08T11:51:10.829Z,70.20
2018-06-08T11:52:09.119Z,69.90
2018-06-08T11:53:08.684Z,68.20
2018-06-08T11:54:08.598Z,70.40
2018-06-08T11:55:09.023Z,69.20
2018-06-08T11:56:08.662Z,74.60
2018-06-08T11:57:09.162Z,71.80
2018-06-08T11:58:09.108Z,70.50
2018-06-08T11:59:08.662Z,72.20
2018-06-08T12:00:09.275Z,71.20
2018-06-08T12:01:10.770Z,71.50
2018-06-08T12:02:08.969Z,73.30
2018-06-08T12:03:09.022Z,73.00
2018-06-08T12:04:08.652Z,71.80
2018-06-08T12:05:09.526Z,72.50
2018-06-08T12:07:40.699Z,68.50
2018-06-08T12:08:42.068Z,70.40
2018-06-08T12:10:37.594Z,73.40
2018-06-08T12:11:36.963Z,73.10
2018-06-08T12:13:30.573Z,72.10
2018-06-08T12:14:30.889Z,72.50
2018-06-08T12:16:24.722Z,72.60
2018-06-08T12:17:25.987Z,71.00
2018-06-08T12:19:18.609Z,69.20
2018-06-08T12:20:18.671Z,68.90
2018-06-08T12:22:13.393Z,65.70
2018-06-08T12:23:13.404Z,67.40
2018-06-08T12:24:13.596Z,66.50
2018-06-08T12:25:13.896Z,64.90
2018-06-08T12:26:13.880Z,65.70
2018-06-08T12:27:13.427Z,64.30
2018-06-08T12:28:14.042Z,64.60
2018-06-08T12:29:13.280Z,60.90
2018-06-08T12:30:13.101Z,64.40
2018-06-08T12:31:14.077Z,61.60
2018-06-08T12:32:13.403Z,61.70
2018-06-08T12:33:13.615Z,60.20
2018-06-08T12:34:13.380Z,64.10
2018-06-08T12:35:13.385Z,59.40
2018-06-08T12:36:13.622Z,60.20
2018-06-08T12:37:13.536Z,62.30
2018-06-08T12:38:13.933Z,59.20
2018-06-08T12:39:13.004Z,59.50
2018-06-08T12:40:14.144Z,60.20
2018-06-08T12:41:13.560Z,60.00
2018-06-08T12:42:13.668Z,59.30
2018-06-08T12:43:14.173Z,60.70
2018-06-08T12:44:13.110Z,59.60
2018-06-08T12:45:15.547Z,58.80
2018-06-08T12:46:13.471Z,59.00
2018-06-08T12:47:13.476Z,58.60
2018-06-08T12:48:14.217Z,58.00
2018-06-08T12:49:13.420Z,60.50
2018-06-08T12:50:13.894Z,57.40
2018-06-08T12:51:13.565Z,59.20
2018-06-08T12:52:13.578Z,57.20
2018-06-08T12:53:13.472Z,57.40
2018-06-08T12:54:13.564Z,59.20
2018-06-08T12:55:13.444Z,60.30
2018-06-08T12:56:13.836Z,61.30
2018-06-08T12:57:12.977Z,58.60
2018-06-08T12:58:13.907Z,62.70
2018-06-08T12:59:13.243Z,61.10
2018-06-08T13:00:14.573Z,57.30
2018-06-08T13:01:13.473Z,60.00